Time;durP1;ratioP1;P1;durP2;ratioP2;P2;SDS_P1;SDS_P2;PMS_P1;PMS_P2;Temp;Humidity;BMP_temperature;BMP_pressure;BME280_temperature;BME280_humidity;BME280_pressure;Samples;Min_cycle;Max_cycle;Signal;HPM_P1;HPM_P2
2021/11/18 00:02:26;;;;;;;13.95;10.60;;;;;;;4.57;100.00;99183.63;10290723;28;20043;-77
2021/11/18 00:07:31;;;;;;;13.10;9.80;;;;;;;4.52;100.00;99191.06;10310930;28;20059;-75
2021/11/18 00:12:34;;;;;;;15.48;10.05;;;;;;;4.48;100.00;99191.28;10302009;28;20047;-76
2021/11/18 00:17:37;;;;;;;15.05;10.48;;;;;;;4.44;100.00;99186.25;10296988;28;20129;-76
2021/11/18 00:22:42;;;;;;;15.48;11.23;;;;;;;4.43;100.00;99195.22;10299540;28;20050;-76
2021/11/18 00:27:45;;;;;;;16.42;10.60;;;;;;;4.47;100.00;99199.41;10301127;28;20054;-76
2021/11/18 00:32:49;;;;;;;16.08;10.48;;;;;;;4.45;100.00;99193.31;10292554;28;20418;-77
2021/11/18 00:37:54;;;;;;;15.75;10.25;;;;;;;4.43;100.00;99189.88;10303121;28;20109;-77
2021/11/18 00:42:57;;;;;;;14.32;10.10;;;;;;;4.43;100.00;99189.88;10293097;28;20045;-77
2021/11/18 00:48:01;;;;;;;15.98;10.52;;;;;;;4.37;100.00;99190.31;10306050;28;20070;-77
2021/11/18 00:53:07;;;;;;;15.23;10.02;;;;;;;4.34;100.00;99199.38;10290595;28;20051;-76
2021/11/18 00:58:10;;;;;;;16.05;10.05;;;;;;;4.32;100.00;99201.28;10296008;28;20504;-76
2021/11/18 01:03:16;;;;;;;16.30;10.27;;;;;;;4.28;100.00;99216.66;10304969;28;20036;-76
2021/11/18 01:08:21;;;;;;;14.50;10.48;;;;;;;4.29;100.00;99231.66;10269100;28;20177;-76
2021/11/18 01:13:26;;;;;;;14.50;10.13;;;;;;;4.28;100.00;99239.78;10291327;28;20053;-76
2021/11/18 01:18:29;;;;;;;14.95;10.25;;;;;;;4.31;100.00;99226.25;10269898;28;20062;-76
2021/11/18 01:23:40;;;;;;;16.05;9.73;;;;;;;4.32;100.00;99239.47;10280375;28;20807;-75
2021/11/18 01:28:44;;;;;;;14.93;10.25;;;;;;;4.34;100.00;99242.06;10278636;28;20058;-75
2021/11/18 01:33:49;;;;;;;15.38;10.55;;;;;;;4.40;100.00;99240.78;10276356;28;20047;-75
2021/11/18 01:38:53;;;;;;;15.05;10.57;;;;;;;4.44;100.00;99247.63;10272570;28;20550;-75
2021/11/18 01:44:10;;;;;;;16.58;11.48;;;;;;;4.46;100.00;99245.72;10262167;28;20039;-75
2021/11/18 01:49:15;;;;;;;18.80;11.02;;;;;;;4.48;100.00;99259.81;10285283;28;20121;-76
2021/11/18 01:54:22;;;;;;;15.48;10.57;;;;;;;4.51;100.00;99248.94;10272428;28;20455;-76
2021/11/18 01:59:28;;;;;;;14.57;10.13;;;;;;;4.54;100.00;99256.72;10278797;28;20141;-75
2021/11/18 02:04:51;;;;;;;17.15;11.15;;;;;;;4.58;100.00;99250.22;10284962;28;20058;-76
2021/11/18 02:09:57;;;;;;;15.38;10.85;;;;;;;4.65;100.00;99257.81;10275381;28;20045;-76
2021/11/18 02:15:17;;;;;;;17.58;10.55;;;;;;;4.65;100.00;99255.16;10281757;28;20113;-76
2021/11/18 02:20:26;;;;;;;14.38;9.95;;;;;;;4.63;100.00;99237.44;10267729;28;20146;-75
2021/11/18 02:25:33;;;;;;;15.88;9.65;;;;;;;4.65;100.00;99266.69;10263264;28;20051;-76
2021/11/18 02:30:39;;;;;;;16.25;10.88;;;;;;;4.64;100.00;99270.31;10270101;28;20046;-77
2021/11/18 02:35:44;;;;;;;19.05;10.88;;;;;;;4.61;100.00;99275.84;10275568;28;20416;-75
2021/11/18 02:40:48;;;;;;;14.32;10.55;;;;;;;4.57;100.00;99277.88;10280544;28;20121;-76
2021/11/18 02:45:52;;;;;;;15.18;10.13;;;;;;;4.55;100.00;99273.59;10276401;28;20471;-75
2021/11/18 02:50:59;;;;;;;15.73;10.10;;;;;;;4.51;100.00;99272.09;10263788;28;20093;-77
2021/11/18 02:56:03;;;;;;;18.30;6.95;;;;;;;4.48;100.00;99263.31;10292260;28;20141;-78
2021/11/18 03:01:15;;;;;;;16.92;7.40;;;;;;;4.50;100.00;99281.91;10264851;28;20043;-77
2021/11/18 03:06:20;;;;;;;12.98;8.27;;;;;;;4.48;100.00;99275.81;10282226;28;20050;-77
2021/11/18 03:11:26;;;;;;;15.85;10.43;;;;;;;4.40;100.00;99272.81;10275337;28;20053;-77
2021/11/18 03:16:30;;;;;;;14.73;10.45;;;;;;;4.31;100.00;99301.78;10273239;28;20105;-78
2021/11/18 03:21:35;;;;;;;15.63;11.07;;;;;;;4.19;100.00;99309.75;10280089;28;20411;-77
2021/11/18 03:26:39;;;;;;;17.80;11.18;;;;;;;4.19;100.00;99297.25;10261472;28;20101;-77
2021/11/18 03:31:53;;;;;;;17.52;11.07;;;;;;;4.13;100.00;99308.31;10277678;28;20066;-76
2021/11/18 03:36:59;;;;;;;13.13;10.05;;;;;;;4.09;100.00;99306.78;10281461;28;20054;-77
2021/11/18 03:42:07;;;;;;;15.55;10.40;;;;;;;4.03;100.00;99312.53;10269528;28;20043;-77
2021/11/18 03:47:13;;;;;;;15.57;10.02;;;;;;;4.00;100.00;99317.09;10259490;28;20149;-77
2021/11/18 03:52:21;;;;;;;16.70;9.23;;;;;;;4.09;100.00;99323.66;10275568;28;20145;-77
2021/11/18 03:57:26;;;;;;;18.40;9.77;;;;;;;4.08;100.00;99327.28;10272125;28;20581;-78
2021/11/18 04:02:37;;;;;;;20.70;9.87;;;;;;;4.07;100.00;99319.38;10266253;28;20389;-78
2021/11/18 04:07:44;;;;;;;16.77;9.55;;;;;;;4.05;100.00;99321.28;10266217;28;20054;-78
2021/11/18 04:12:49;;;;;;;17.27;9.57;;;;;;;4.03;100.00;99318.72;10269582;28;20057;-78
2021/11/18 04:17:52;;;;;;;20.77;9.45;;;;;;;4.04;100.00;99314.25;10286422;28;20082;-78
2021/11/18 04:23:00;;;;;;;22.17;9.27;;;;;;;4.05;100.00;99310.63;10268432;28;20051;-77
2021/11/18 04:28:03;;;;;;;16.77;8.85;;;;;;;4.03;100.00;99313.38;10267653;28;20170;-77
2021/11/18 04:33:07;;;;;;;22.40;9.48;;;;;;;4.03;100.00;99316.03;10281902;28;20043;-77
2021/11/18 04:38:12;;;;;;;17.92;9.15;;;;;;;4.03;100.00;99307.19;10262855;28;20090;-79
2021/11/18 04:43:16;;;;;;;20.17;8.73;;;;;;;4.01;100.00;99316.16;10259762;28;20043;-79
2021/11/18 04:48:23;;;;;;;18.52;8.93;;;;;;;3.98;100.00;99316.34;10267609;28;20051;-79
2021/11/18 04:53:28;;;;;;;19.10;8.85;;;;;;;3.98;100.00;99324.34;10272994;28;20146;-78
2021/11/18 04:58:35;;;;;;;18.92;8.55;;;;;;;4.01;100.00;99304.59;10263201;28;20443;-79
2021/11/18 05:03:40;;;;;;;15.98;8.07;;;;;;;4.05;100.00;99315.97;10275128;28;20071;-78
2021/11/18 05:08:45;;;;;;;16.48;7.97;;;;;;;4.08;100.00;99326.41;10257727;28;20082;-79
2021/11/18 05:13:48;;;;;;;15.27;8.52;;;;;;;4.13;100.00;99327.84;10281856;28;20050;-78
2021/11/18 05:18:52;;;;;;;17.83;8.85;;;;;;;4.18;100.00;99332.03;10268002;28;20137;-79
2021/11/18 05:23:59;;;;;;;21.88;8.98;;;;;;;4.21;100.00;99343.34;10283325;28;20478;-77
2021/11/18 05:29:03;;;;;;;14.70;8.52;;;;;;;4.25;100.00;99328.88;10279102;28;20140;-79
2021/11/18 05:34:06;;;;;;;18.52;8.60;;;;;;;4.25;100.00;99318.19;10291703;28;20078;-78
2021/11/18 05:39:14;;;;;;;16.02;8.23;;;;;;;4.27;100.00;99316.28;10276746;28;20047;-80
2021/11/18 05:44:25;;;;;;;14.10;7.50;;;;;;;4.29;100.00;99318.84;10298146;28;20626;-77
2021/11/18 05:49:28;;;;;;;17.92;7.57;;;;;;;4.29;100.00;99322.38;10275230;28;20047;-78
2021/11/18 05:54:34;;;;;;;16.15;6.90;;;;;;;4.33;100.00;99347.06;10261260;28;20134;-78
2021/11/18 05:59:38;;;;;;;13.35;6.70;;;;;;;4.34;100.00;99345.22;10279065;28;20051;-79
2021/11/18 06:04:41;;;;;;;15.13;6.65;;;;;;;4.35;100.00;99349.63;10287174;28;20070;-78
2021/11/18 06:09:45;;;;;;;16.63;6.75;;;;;;;4.38;100.00;99352.09;10294168;28;20500;-78
2021/11/18 06:14:48;;;;;;;16.48;6.68;;;;;;;4.39;100.00;99367.16;10284930;28;20047;-78
2021/11/18 06:19:53;;;;;;;18.85;7.10;;;;;;;4.41;100.00;99371.44;10291851;28;20094;-78
2021/11/18 06:24:57;;;;;;;19.42;7.20;;;;;;;4.42;100.00;99373.13;10282996;28;20062;-78
2021/11/18 06:30:01;;;;;;;15.27;7.57;;;;;;;4.44;100.00;99378.38;10277100;28;20047;-78
2021/11/18 06:35:05;;;;;;;17.73;7.85;;;;;;;4.44;100.00;99373.03;10273474;28;20085;-78
2021/11/18 06:40:12;;;;;;;16.70;8.05;;;;;;;4.47;100.00;99375.50;10267178;28;20046;-78
2021/11/18 06:45:21;;;;;;;21.50;7.30;;;;;;;4.46;100.00;99365.78;10281167;28;20038;-78
2021/11/18 06:50:30;;;;;;;18.77;7.85;;;;;;;4.46;100.00;99366.66;10285076;28;20050;-78
2021/11/18 06:55:39;;;;;;;21.50;7.88;;;;;;;4.48;100.00;99372.72;10278482;28;20125;-78
2021/11/18 07:00:42;;;;;;;17.30;6.78;;;;;;;4.52;100.00;99385.88;10278834;28;20081;-78
2021/11/18 07:05:45;;;;;;;21.10;6.75;;;;;;;4.56;100.00;99380.25;10288112;28;20046;-77
2021/11/18 07:10:50;;;;;;;20.15;7.60;;;;;;;4.61;100.00;99378.16;10285152;28;20043;-78
2021/11/18 07:15:54;;;;;;;16.48;7.20;;;;;;;4.62;100.00;99379.00;10276849;28;20051;-78
2021/11/18 07:20:59;;;;;;;20.17;7.07;;;;;;;4.68;100.00;99381.28;10259366;28;20067;-78
2021/11/18 07:26:07;;;;;;;19.48;7.30;;;;;;;4.73;100.00;99397.00;10247545;29;20055;-78
2021/11/18 07:31:11;;;;;;;15.43;6.90;;;;;;;4.76;100.00;99391.47;10236275;28;20090;-78
2021/11/18 07:36:21;;;;;;;15.02;6.50;;;;;;;4.82;100.00;99387.53;10226765;29;20054;-78
2021/11/18 07:41:28;;;;;;;15.75;6.22;;;;;;;4.93;100.00;99393.88;10203681;29;20107;-79
2021/11/18 07:46:51;;;;;;;18.17;6.25;;;;;;;5.03;100.00;99393.25;10206467;29;20047;-81
2021/11/18 07:52:00;;;;;;;15.32;6.28;;;;;;;5.12;100.00;99408.66;10197036;29;20044;-77
2021/11/18 07:57:05;;;;;;;19.25;6.72;;;;;;;5.19;100.00;99407.31;10208849;29;20491;-79
2021/11/18 08:02:08;;;;;;;15.88;6.28;;;;;;;5.33;100.00;99405.53;10197964;29;20436;-78
2021/11/18 08:07:11;;;;;;;17.33;6.35;;;;;;;5.49;100.00;99411.53;10195240;29;20047;-79
2021/11/18 08:12:16;;;;;;;15.35;6.13;;;;;;;5.73;100.00;99407.28;10209066;29;20051;-78
2021/11/18 08:17:20;;;;;;;19.60;6.35;;;;;;;5.91;100.00;99411.34;10211837;29;20051;-80
2021/11/18 08:22:24;;;;;;;15.38;6.05;;;;;;;6.10;100.00;99405.59;10259321;28;20059;-78
2021/11/18 08:27:28;;;;;;;18.85;5.95;;;;;;;6.26;100.00;99417.91;10298567;28;20023;-81
2021/11/18 08:32:32;;;;;;;18.45;5.95;;;;;;;6.44;100.00;99418.41;10291085;28;20138;-80
2021/11/18 08:37:48;;;;;;;18.55;6.03;;;;;;;6.50;100.00;99422.47;10284390;28;20051;-78
2021/11/18 08:42:53;;;;;;;16.25;5.85;;;;;;;6.59;100.00;99433.34;10276550;28;20121;-80
2021/11/18 08:47:57;;;;;;;14.73;5.47;;;;;;;6.64;100.00;99438.38;10297192;28;20086;-80
2021/11/18 08:53:02;;;;;;;20.73;5.95;;;;;;;6.68;100.00;99455.09;10291893;28;20042;-81
2021/11/18 08:58:11;;;;;;;17.17;5.78;;;;;;;6.73;100.00;99444.88;10270399;28;20165;-79
2021/11/18 09:03:25;;;;;;;20.08;5.53;;;;;;;6.81;100.00;99449.69;10287763;28;20418;-78
2021/11/18 09:08:32;;;;;;;15.27;5.15;;;;;;;6.85;100.00;99444.00;10287258;28;20053;-81
2021/11/18 09:13:43;;;;;;;16.52;5.03;;;;;;;6.89;100.00;99455.31;10265357;28;20129;-78
2021/11/18 09:18:46;;;;;;;18.33;5.70;;;;;;;6.94;100.00;99479.97;10296499;28;20110;-79
2021/11/18 09:23:52;;;;;;;17.08;5.90;;;;;;;7.05;100.00;99481.88;10270712;28;20055;-77
2021/11/18 09:28:59;;;;;;;15.93;5.50;;;;;;;7.19;100.00;99488.91;10268001;28;20141;-80
2021/11/18 09:34:35;;;;;;;15.65;7.10;;;;;;;7.30;100.00;99483.59;10262416;28;20182;-79
2021/11/18 09:39:38;;;;;;;22.95;7.45;;;;;;;7.34;100.00;99478.84;10267024;28;20377;-77
2021/11/18 09:45:09;;;;;;;14.93;6.65;;;;;;;7.37;100.00;99479.47;10270946;28;20047;-79
2021/11/18 09:50:21;;;;;;;16.17;6.25;;;;;;;7.41;100.00;99477.41;10266061;28;20047;-79
2021/11/18 09:56:05;;;;;;;16.45;6.13;;;;;;;7.44;100.00;99477.19;10264724;28;20061;-77
2021/11/18 10:01:43;;;;;;;15.13;5.75;;;;;;;7.50;100.00;99479.41;10280771;28;20050;-81
2021/11/18 10:06:54;;;;;;;15.32;5.30;;;;;;;7.76;100.00;99481.09;10287505;28;20061;-80
2021/11/18 10:12:06;;;;;;;17.33;6.75;;;;;;;7.94;100.00;99463.56;10280497;28;20072;-77
2021/11/18 10:17:19;;;;;;;17.70;4.97;;;;;;;8.10;100.00;99463.25;10272926;28;20057;-79
2021/11/18 10:22:27;;;;;;;16.80;6.57;;;;;;;8.26;100.00;99446.78;10270001;28;20078;-77
2021/11/18 10:27:35;;;;;;;15.32;5.40;;;;;;;8.33;100.00;99447.16;10296171;28;20093;-77
2021/11/18 10:32:54;;;;;;;16.13;4.80;;;;;;;8.48;100.00;99450.47;10276115;28;20493;-78
2021/11/18 10:38:29;;;;;;;15.20;4.32;;;;;;;8.65;100.00;99441.06;10300806;28;20053;-77
2021/11/18 10:43:34;;;;;;;14.80;4.20;;;;;;;8.83;100.00;99436.03;10304617;28;20065;-77
2021/11/18 10:48:42;;;;;;;17.00;4.93;;;;;;;8.94;100.00;99427.94;10297558;28;20043;-79
2021/11/18 10:53:50;;;;;;;15.48;3.97;;;;;;;8.93;100.00;99423.56;10292890;28;20055;-79
2021/11/18 10:59:04;;;;;;;15.20;3.92;;;;;;;8.92;100.00;99415.63;10290123;28;20478;-79
2021/11/18 11:04:11;;;;;;;10.57;3.65;;;;;;;8.89;100.00;99419.41;10288945;28;20066;-79
2021/11/18 11:09:16;;;;;;;11.20;4.03;;;;;;;9.01;100.00;99416.69;10289976;28;20098;-79
2021/11/18 11:14:44;;;;;;;14.30;4.05;;;;;;;9.04;100.00;99428.06;10287949;28;20043;-79
2021/11/18 11:19:54;;;;;;;11.77;4.72;;;;;;;9.05;100.00;99415.47;10284726;28;20471;-79
2021/11/18 11:25:21;;;;;;;15.20;4.25;;;;;;;8.97;100.00;99412.56;10301586;28;20518;-79
2021/11/18 11:30:30;;;;;;;12.35;3.80;;;;;;;8.91;100.00;99420.13;10289075;28;20053;-77
2021/11/18 11:35:44;;;;;;;15.57;4.65;;;;;;;8.91;100.00;99430.88;10287721;28;20055;-77
2021/11/18 11:40:56;;;;;;;12.15;4.00;;;;;;;8.86;100.00;99441.16;10287529;28;20045;-77
2021/11/18 11:46:15;;;;;;;14.75;4.10;;;;;;;8.79;100.00;99448.88;10286825;28;20050;-78
2021/11/18 11:51:41;;;;;;;11.60;4.00;;;;;;;8.75;100.00;99438.50;10282766;28;20031;-77
2021/11/18 11:56:46;;;;;;;14.93;4.53;;;;;;;8.69;100.00;99441.66;10285151;28;20508;-76
2021/11/18 12:02:00;;;;;;;14.60;4.85;;;;;;;8.67;100.00;99439.13;10289571;28;20077;-77
2021/11/18 12:07:11;;;;;;;14.15;4.20;;;;;;;8.66;100.00;99434.72;10282900;28;20043;-77
2021/11/18 12:12:32;;;;;;;13.95;4.47;;;;;;;8.69;100.00;99418.38;10285677;28;20507;-76
2021/11/18 12:17:40;;;;;;;11.77;4.45;;;;;;;8.59;100.00;99410.19;10289190;28;20070;-76
2021/11/18 12:22:59;;;;;;;14.48;4.53;;;;;;;8.52;100.00;99384.81;10295205;28;20106;-77
2021/11/18 12:28:17;;;;;;;13.63;4.28;;;;;;;8.54;100.00;99382.81;10280208;28;20058;-78
2021/11/18 12:33:42;;;;;;;11.50;3.75;;;;;;;8.50;100.00;99373.34;10292822;28;20137;-78
2021/11/18 12:38:49;;;;;;;10.02;3.92;;;;;;;8.48;100.00;99365.38;10293885;28;20043;-76
2021/11/18 12:44:39;;;;;;;14.85;6.20;;;;;;;8.40;100.00;99359.75;10296816;28;20511;-77
2021/11/18 12:50:11;;;;;;;16.58;6.40;;;;;;;8.29;100.00;99363.28;10268766;28;20050;-77
2021/11/18 12:55:44;;;;;;;16.33;7.15;;;;;;;8.20;100.00;99365.88;10283368;28;20558;-77
2021/11/18 13:00:49;;;;;;;13.63;6.93;;;;;;;8.13;100.00;99366.34;10286406;28;20610;-77
2021/11/18 13:05:56;;;;;;;13.68;6.75;;;;;;;8.05;100.00;99357.22;10290621;28;20126;-77
2021/11/18 13:11:47;;;;;;;16.02;7.15;;;;;;;8.03;100.00;99370.75;10293978;28;20095;-77
2021/11/18 13:17:18;;;;;;;16.77;6.78;;;;;;;7.95;100.00;99371.34;10292010;28;20043;-78
2021/11/18 13:22:27;;;;;;;15.65;6.68;;;;;;;7.92;100.00;99363.56;10286247;28;20074;-77
2021/11/18 13:27:37;;;;;;;14.65;6.93;;;;;;;7.91;100.00;99356.50;10284135;28;20049;-77
2021/11/18 13:32:55;;;;;;;16.13;6.97;;;;;;;7.91;100.00;99329.66;10269205;28;20121;-77
2021/11/18 13:38:07;;;;;;;15.00;6.30;;;;;;;7.92;100.00;99320.63;10281360;28;20061;-77
2021/11/18 13:43:16;;;;;;;12.63;6.28;;;;;;;7.94;100.00;99334.75;10279414;28;20055;-77
2021/11/18 13:48:20;;;;;;;14.57;6.25;;;;;;;7.93;100.00;99370.66;10283169;28;20133;-79
2021/11/18 13:53:26;;;;;;;14.45;6.13;;;;;;;7.90;100.00;99346.72;10284421;28;20051;-79
2021/11/18 13:58:36;;;;;;;12.35;5.45;;;;;;;7.82;100.00;99339.28;10281566;28;20408;-78
2021/11/18 14:03:56;;;;;;;15.25;6.32;;;;;;;7.79;100.00;99330.63;10280741;28;20049;-79
2021/11/18 14:09:04;;;;;;;14.05;6.10;;;;;;;7.80;100.00;99316.25;10266764;28;20141;-78
2021/11/18 14:14:41;;;;;;;14.02;6.10;;;;;;;7.79;100.00;99319.91;10264316;28;20043;-78
2021/11/18 14:19:55;;;;;;;13.90;6.05;;;;;;;7.79;100.00;99320.75;10296357;28;20058;-76
2021/11/18 14:25:00;;;;;;;14.50;5.88;;;;;;;7.78;100.00;99318.19;10286540;28;20786;-77
2021/11/18 14:30:08;;;;;;;18.42;6.63;;;;;;;7.76;100.00;99320.13;10289089;28;20074;-77
2021/11/18 14:35:24;;;;;;;12.73;5.82;;;;;;;7.72;100.00;99315.00;10283962;28;20038;-77
2021/11/18 14:40:29;;;;;;;16.05;5.80;;;;;;;7.68;100.00;99302.81;10267798;28;20061;-76
2021/11/18 14:45:38;;;;;;;11.85;5.80;;;;;;;7.58;100.00;99306.34;10273197;28;20080;-77
2021/11/18 14:50:43;;;;;;;12.38;5.65;;;;;;;7.49;100.00;99313.28;10284034;28;20065;-77
2021/11/18 14:55:59;;;;;;;8.85;5.25;;;;;;;7.44;100.00;99315.47;10266817;28;20511;-77
2021/11/18 15:01:08;;;;;;;19.17;5.97;;;;;;;7.40;100.00;99298.78;10268062;28;20053;-77
2021/11/18 15:06:12;;;;;;;14.02;6.35;;;;;;;7.36;100.00;99308.84;10277524;28;20118;-77
2021/11/18 15:11:15;;;;;;;19.88;6.63;;;;;;;7.25;100.00;99298.13;10284266;28;20415;-77
2021/11/18 15:16:20;;;;;;;14.32;6.90;;;;;;;7.17;100.00;99313.94;10286158;28;20043;-77
2021/11/18 15:21:24;;;;;;;15.88;6.40;;;;;;;7.06;100.00;99315.63;10291695;28;20082;-77
2021/11/18 15:26:28;;;;;;;13.23;6.22;;;;;;;7.05;100.00;99310.38;10288678;28;20071;-77
2021/11/18 15:31:36;;;;;;;17.55;5.90;;;;;;;7.02;100.00;99315.97;10287436;28;20061;-76
2021/11/18 15:36:39;;;;;;;17.13;6.63;;;;;;;7.01;100.00;99323.13;10281162;28;20035;-77
2021/11/18 15:41:45;;;;;;;18.42;6.65;;;;;;;6.98;100.00;99318.03;10287266;28;20057;-77
2021/11/18 15:46:52;;;;;;;15.18;6.32;;;;;;;6.91;100.00;99316.78;10286211;28;20035;-77
2021/11/18 15:52:01;;;;;;;14.85;6.72;;;;;;;6.85;100.00;99331.47;10326922;22;20065;-57
2021/11/18 15:57:04;;;;;;;17.83;7.40;;;;;;;6.91;100.00;99320.31;10330374;28;20141;-57
2021/11/18 16:02:13;;;;;;;14.60;6.07;;;;;;;6.94;100.00;99324.59;10363868;28;20050;-58
2021/11/18 16:07:19;;;;;;;18.35;6.80;;;;;;;6.94;100.00;99356.72;10361671;28;20060;-56
2021/11/18 16:12:26;;;;;;;14.38;6.57;;;;;;;6.96;100.00;99330.69;10363950;28;20041;-57
2021/11/18 16:17:34;;;;;;;15.60;6.65;;;;;;;6.95;100.00;99334.34;10343526;28;20458;-57
2021/11/18 16:22:39;;;;;;;15.55;6.60;;;;;;;6.94;100.00;99325.44;10365892;28;20092;-56
2021/11/18 16:27:44;;;;;;;20.10;6.72;;;;;;;6.94;100.00;99329.94;10358192;28;20130;-58
2021/11/18 16:32:49;;;;;;;16.30;6.60;;;;;;;6.91;100.00;99332.84;10358885;28;20100;-57
2021/11/18 16:37:54;;;;;;;15.07;6.63;;;;;;;6.93;100.00;99330.91;10355226;28;20069;-59
2021/11/18 16:42:58;;;;;;;14.38;6.95;;;;;;;6.99;100.00;99310.84;10351998;28;20068;-57
2021/11/18 16:48:04;;;;;;;14.13;7.50;;;;;;;6.98;100.00;99320.72;10358913;28;20125;-55
2021/11/18 16:53:08;;;;;;;17.13;7.10;;;;;;;6.91;100.00;99324.81;10355724;28;20510;-54
2021/11/18 16:58:11;;;;;;;15.70;6.50;;;;;;;6.86;100.00;99337.72;10351497;28;20045;-55
2021/11/18 17:03:16;;;;;;;13.52;5.65;;;;;;;6.83;100.00;99332.56;10350286;28;20052;-60
2021/11/18 17:08:21;;;;;;;14.20;5.25;;;;;;;6.81;100.00;99350.56;10358094;28;20128;-56
2021/11/18 17:13:25;;;;;;;12.85;5.47;;;;;;;6.78;100.00;99351.66;10349049;28;20045;-57
2021/11/18 17:18:30;;;;;;;15.95;5.80;;;;;;;6.77;100.00;99350.81;10334725;28;20054;-59
2021/11/18 17:23:34;;;;;;;14.32;6.00;;;;;;;6.79;100.00;99348.03;10356015;23;20049;-62
2021/11/18 17:28:43;;;;;;;14.85;5.90;;;;;;;6.82;100.00;99336.22;10360594;28;20052;-59
2021/11/18 17:33:49;;;;;;;15.82;5.70;;;;;;;6.85;100.00;99341.34;10356270;28;20057;-55
2021/11/18 17:38:55;;;;;;;17.75;5.95;;;;;;;6.85;100.00;99346.72;10358926;28;20062;-64
2021/11/18 17:43:58;;;;;;;13.90;4.95;;;;;;;6.89;100.00;99343.69;10330729;28;20140;-59
2021/11/18 17:49:04;;;;;;;14.13;4.40;;;;;;;6.88;100.00;99357.22;10344697;28;20572;-54
2021/11/18 17:54:09;;;;;;;12.52;4.07;;;;;;;6.86;100.00;99343.06;10364428;28;20068;-62
2021/11/18 17:59:15;;;;;;;12.55;3.95;;;;;;;6.83;100.00;99352.16;10344552;28;20129;-61
2021/11/18 18:04:20;;;;;;;16.67;4.10;;;;;;;6.85;100.00;99344.88;10364896;28;20053;-61
2021/11/18 18:09:26;;;;;;;13.73;4.85;;;;;;;6.88;100.00;99341.13;10365210;28;20050;-61
2021/11/18 18:14:30;;;;;;;12.95;5.22;;;;;;;6.92;100.00;99329.19;10362232;28;20050;-62
2021/11/18 18:19:37;;;;;;;23.02;6.10;;;;;;;6.92;100.00;99334.56;10357863;28;20042;-60
2021/11/18 18:24:41;;;;;;;14.52;5.68;;;;;;;6.90;100.00;99320.41;10361692;28;20046;-59
2021/11/18 18:29:45;;;;;;;18.52;5.65;;;;;;;6.89;100.00;99324.94;10344017;28;20046;-62
2021/11/18 18:34:50;;;;;;;13.65;5.47;;;;;;;6.84;100.00;99334.28;10364923;28;20570;-63
2021/11/18 18:39:56;;;;;;;13.50;4.93;;;;;;;6.76;100.00;99342.88;10356827;28;20046;-64
2021/11/18 18:44:59;;;;;;;13.23;3.78;;;;;;;6.76;100.00;99335.69;10340005;28;20046;-64
2021/11/18 18:50:07;;;;;;;11.52;4.10;;;;;;;6.79;100.00;99332.78;10363055;28;20076;-65
2021/11/18 18:55:23;;;;;;;12.95;3.72;;;;;;;6.81;100.00;99323.78;10384510;28;20049;-65
2021/11/18 19:01:18;;;;;;;10.38;3.97;;;;;;;6.77;100.00;99321.34;10407575;28;20053;-67
2021/11/18 19:06:26;;;;;;;13.85;4.30;;;;;;;6.78;100.00;99314.16;10415538;28;20065;-63
2021/11/18 19:11:30;;;;;;;13.50;4.22;;;;;;;6.76;100.00;99300.88;10415982;28;20062;-67
2021/11/18 19:16:36;;;;;;;11.63;3.67;;;;;;;6.71;100.00;99324.50;10365689;28;20134;-64
2021/11/18 19:21:42;;;;;;;14.00;4.10;;;;;;;6.67;100.00;99332.88;10363371;28;20045;-66
2021/11/18 19:26:49;;;;;;;12.75;4.55;;;;;;;6.62;100.00;99322.50;10341575;28;20042;-65
2021/11/18 19:32:05;;;;;;;13.63;4.68;;;;;;;6.54;100.00;99323.06;10366450;28;20049;-65
2021/11/18 19:37:13;;;;;;;9.95;4.20;;;;;;;6.56;100.00;99330.97;10368791;28;20570;-66
2021/11/18 19:42:18;;;;;;;13.25;5.60;;;;;;;6.55;100.00;99315.88;10359863;28;20810;-64
2021/11/18 19:47:26;;;;;;;13.45;6.15;;;;;;;6.54;100.00;99312.34;10364783;28;20048;-65
2021/11/18 19:52:34;;;;;;;13.98;6.07;;;;;;;6.57;100.00;99312.13;10360038;28;20046;-62
2021/11/18 19:57:38;;;;;;;15.52;6.53;;;;;;;6.58;100.00;99319.19;10341111;28;20839;-65
2021/11/18 20:02:42;;;;;;;14.57;6.10;;;;;;;6.58;100.00;99311.16;10365380;28;20052;-64
2021/11/18 20:07:47;;;;;;;17.02;6.53;;;;;;;6.59;100.00;99322.72;10363096;28;20042;-64
2021/11/18 20:12:50;;;;;;;13.07;6.40;;;;;;;6.60;100.00;99327.94;10362892;28;20292;-69
2021/11/18 20:17:55;;;;;;;19.15;7.30;;;;;;;6.62;100.00;99326.00;10339238;28;20073;-66
2021/11/18 20:23:00;;;;;;;14.30;6.28;;;;;;;6.66;100.00;99309.72;10346511;28;20077;-65
2021/11/18 20:28:05;;;;;;;12.15;6.28;;;;;;;6.67;100.00;99327.50;10357433;28;20247;-65
2021/11/18 20:33:13;;;;;;;12.75;6.43;;;;;;;6.69;100.00;99329.09;10362550;28;20137;-66
2021/11/18 20:38:18;;;;;;;11.38;5.55;;;;;;;6.75;100.00;99314.41;10359506;28;20038;-65
2021/11/18 20:43:47;;;;;;;12.63;6.00;;;;;;;6.74;100.00;99307.31;10362275;28;20129;-59
2021/11/18 20:48:53;;;;;;;11.40;5.83;;;;;;;6.71;100.00;99320.94;10344728;28;20054;-64
2021/11/18 20:54:04;;;;;;;15.30;6.43;;;;;;;6.72;100.00;99309.25;10363580;28;20469;-65
2021/11/18 20:59:08;;;;;;;17.50;6.85;;;;;;;6.71;100.00;99318.25;10354185;28;20393;-64
2021/11/18 21:04:13;;;;;;;12.73;6.68;;;;;;;6.70;100.00;99324.63;10360262;28;20050;-65
2021/11/18 21:09:20;;;;;;;14.70;6.60;;;;;;;6.67;100.00;99338.22;10354468;28;20132;-63
2021/11/18 21:14:44;;;;;;;12.80;5.43;;;;;;;6.72;100.00;99338.72;10357388;28;20053;-60
2021/11/18 21:19:47;;;;;;;14.45;5.30;;;;;;;6.74;100.00;99342.16;10357392;28;20069;-62
2021/11/18 21:24:55;;;;;;;13.45;5.13;;;;;;;6.77;100.00;99341.91;10356029;28;20108;-64
2021/11/18 21:30:00;;;;;;;13.48;5.50;;;;;;;6.78;100.00;99346.31;10349403;28;20041;-62
2021/11/18 21:35:05;;;;;;;14.07;5.47;;;;;;;6.79;100.00;99327.44;10354757;28;20398;-62
2021/11/18 21:40:25;;;;;;;13.85;5.45;;;;;;;6.79;100.00;99346.19;10356353;28;20034;-62
2021/11/18 21:45:30;;;;;;;19.95;7.47;;;;;;;6.79;100.00;99351.53;10356333;28;20068;-62
2021/11/18 21:50:38;;;;;;;16.42;7.90;;;;;;;6.74;100.00;99351.06;10353176;28;20553;-64
2021/11/18 21:55:45;;;;;;;16.85;7.47;;;;;;;6.74;100.00;99345.69;10337882;28;20562;-63
2021/11/18 22:00:51;;;;;;;17.15;7.85;;;;;;;6.73;100.00;99360.06;10358583;28;20073;-64
2021/11/18 22:05:58;;;;;;;17.65;8.40;;;;;;;6.74;100.00;99367.13;10359288;28;20121;-64
2021/11/18 22:11:05;;;;;;;13.88;7.40;;;;;;;6.74;100.00;99371.59;10358262;28;20472;-63
2021/11/18 22:16:13;;;;;;;14.88;7.63;;;;;;;6.73;100.00;99372.56;10356329;28;20099;-64
2021/11/18 22:21:20;;;;;;;14.25;5.63;;;;;;;6.74;100.00;99367.13;10364689;28;20558;-63
2021/11/18 22:26:28;;;;;;;15.13;6.93;;;;;;;6.79;100.00;99353.38;10367877;28;20744;-62
2021/11/18 22:31:32;;;;;;;15.10;6.10;;;;;;;6.86;100.00;99351.09;10366580;28;20034;-63
2021/11/18 22:36:37;;;;;;;15.85;5.43;;;;;;;6.93;100.00;99355.03;10362645;28;20481;-60
2021/11/18 22:41:45;;;;;;;13.13;5.38;;;;;;;6.99;100.00;99349.22;10348872;28;20046;-64
2021/11/18 22:46:49;;;;;;;16.00;4.82;;;;;;;7.03;100.00;99352.50;10349362;28;20068;-62
2021/11/18 22:51:54;;;;;;;15.82;5.13;;;;;;;7.03;100.00;99355.19;10370157;28;20072;-63
2021/11/18 22:57:01;;;;;;;11.82;4.35;;;;;;;7.05;100.00;99364.81;10366783;28;20045;-63
2021/11/18 23:02:11;;;;;;;13.93;5.22;;;;;;;7.04;100.00;99349.72;10352242;28;20057;-64
2021/11/18 23:07:15;;;;;;;13.02;4.97;;;;;;;7.03;100.00;99371.28;10362175;28;20042;-62
2021/11/18 23:12:19;;;;;;;14.23;5.38;;;;;;;7.04;100.00;99371.16;10368184;28;20045;-62
2021/11/18 23:17:23;;;;;;;12.27;5.53;;;;;;;7.03;100.00;99372.13;10361526;28;20140;-63
2021/11/18 23:22:29;;;;;;;17.05;5.35;;;;;;;7.03;100.00;99369.44;10384184;22;20152;-54
2021/11/18 23:27:35;;;;;;;13.57;4.72;;;;;;;7.04;100.00;99370.31;10323102;28;20133;-56
2021/11/18 23:32:38;;;;;;;11.93;4.70;;;;;;;7.04;100.00;99368.47;10325254;28;20053;-53
2021/11/18 23:37:43;;;;;;;10.38;4.63;;;;;;;7.04;100.00;99363.09;10322614;28;20077;-52